Time;durP1;ratioP1;P1;durP2;ratioP2;P2;SDS_P1;SDS_P2;PMS_P1;PMS_P2;Temp;Humidity;BMP_temperature;BMP_pressure;BME280_temperature;BME280_humidity;BME280_pressure;Samples;Min_cycle;Max_cycle;Signal;HPM_P1;HPM_P2
2021/12/23 00:00:18;;;;;;;23.30;12.75;;;-0.20;99.90;;;;;;5089766;28;20044;-83
2021/12/23 00:02:43;;;;;;;21.17;11.65;;;-0.20;99.90;;;;;;5085954;28;20126;-82
2021/12/23 00:05:10;;;;;;;22.00;12.90;;;-0.20;99.90;;;;;;5092252;28;20119;-83
2021/12/23 00:07:36;;;;;;;20.90;11.80;;;-0.20;99.90;;;;;;5077607;28;20032;-83
2021/12/23 00:10:08;;;;;;;21.55;12.65;;;-0.20;99.90;;;;;;5115477;27;20100;-83
2021/12/23 00:12:41;;;;;;;20.52;12.70;;;-0.20;99.90;;;;;;5086128;28;20482;-83
2021/12/23 00:15:16;;;;;;;24.70;12.52;;;-0.20;99.90;;;;;;5103430;27;20436;-83
2021/12/23 00:25:20;;;;;;;23.88;13.20;;;-0.20;99.90;;;;;;5071736;28;20041;-83
2021/12/23 00:27:46;;;;;;;21.20;13.05;;;-0.10;99.90;;;;;;5071023;28;20051;-83
2021/12/23 00:30:11;;;;;;;22.50;12.43;;;-0.10;99.90;;;;;;5071501;28;20040;-83
2021/12/23 00:32:38;;;;;;;22.20;13.35;;;-0.10;99.90;;;;;;5098466;28;20083;-83
2021/12/23 00:35:05;;;;;;;24.90;13.38;;;-0.10;99.90;;;;;;5105915;28;20047;-83
2021/12/23 00:37:41;;;;;;;22.33;12.10;;;-0.10;99.90;;;;;;5072178;28;20071;-83
2021/12/23 00:40:09;;;;;;;24.00;13.60;;;-0.10;99.90;;;;;;5080065;28;20039;-83
2021/12/23 00:42:35;;;;;;;24.15;13.85;;;-0.10;99.90;;;;;;5071440;28;20502;-83
2021/12/23 00:45:03;;;;;;;20.08;12.40;;;-0.10;99.90;;;;;;5082581;28;20036;-83
2021/12/23 00:47:29;;;;;;;24.05;13.88;;;-0.10;99.90;;;;;;5071777;28;20067;-83
2021/12/23 00:49:55;;;;;;;22.50;13.40;;;-0.10;99.90;;;;;;5112679;27;20047;-83
2021/12/23 00:52:28;;;;;;;23.75;13.95;;;-0.10;99.90;;;;;;5075747;28;20343;-83
2021/12/23 00:54:54;;;;;;;22.02;13.55;;;0.00;99.90;;;;;;5094706;28;20462;-83
2021/12/23 00:57:26;;;;;;;21.67;13.70;;;0.00;99.90;;;;;;5070531;28;20130;-83
2021/12/23 00:59:52;;;;;;;25.50;13.55;;;0.00;99.90;;;;;;5069750;28;20044;-83
2021/12/23 01:02:18;;;;;;;24.77;13.25;;;0.00;99.90;;;;;;5085325;28;20408;-83
2021/12/23 01:04:43;;;;;;;23.95;14.02;;;0.00;99.90;;;;;;5071580;28;20036;-83
2021/12/23 01:07:09;;;;;;;30.40;14.70;;;0.00;99.90;;;;;;5070981;28;20036;-83
2021/12/23 01:09:35;;;;;;;23.10;12.88;;;0.00;99.90;;;;;;5070826;28;20069;-82
2021/12/23 01:12:02;;;;;;;22.98;13.35;;;0.00;99.90;;;;;;5071999;28;20394;-83
2021/12/23 01:14:39;;;;;;;25.25;13.48;;;0.00;99.90;;;;;;5069131;28;20046;-83
2021/12/23 01:19:49;;;;;;;24.33;13.52;;;0.00;99.90;;;;;;5102416;27;21199;-83
2021/12/23 01:22:15;;;;;;;27.67;14.40;;;0.10;99.90;;;;;;5101478;28;20082;-83
2021/12/23 01:24:40;;;;;;;25.20;15.30;;;0.10;99.90;;;;;;5077281;28;20060;-83
2021/12/23 01:27:06;;;;;;;23.85;13.98;;;0.10;99.90;;;;;;5088260;28;20125;-82
2021/12/23 01:29:32;;;;;;;21.65;13.52;;;0.10;99.90;;;;;;5085387;28;20032;-83
2021/12/23 01:32:00;;;;;;;21.17;13.38;;;0.10;99.90;;;;;;5071835;28;20044;-83
2021/12/23 01:34:26;;;;;;;23.00;13.50;;;0.10;99.90;;;;;;5112743;27;20493;-82
2021/12/23 01:36:51;;;;;;;22.52;13.77;;;0.10;99.90;;;;;;5088874;28;20040;-83
2021/12/23 01:39:17;;;;;;;26.00;13.98;;;0.10;99.90;;;;;;5089566;28;20036;-83
2021/12/23 01:41:42;;;;;;;23.27;14.57;;;0.10;99.90;;;;;;5071000;28;20042;-83
2021/12/23 01:44:08;;;;;;;25.85;15.35;;;0.10;99.90;;;;;;5067684;28;20126;-83
2021/12/23 01:46:34;;;;;;;29.75;15.25;;;0.00;99.90;;;;;;5088622;28;20227;-83
2021/12/23 01:48:59;;;;;;;22.70;12.95;;;0.00;99.90;;;;;;5087261;28;20042;-83
2021/12/23 01:51:25;;;;;;;26.15;14.75;;;0.10;99.90;;;;;;5085375;28;20047;-83
2021/12/23 01:53:50;;;;;;;27.20;15.35;;;0.00;99.90;;;;;;5070970;28;20550;-83
2021/12/23 01:56:17;;;;;;;25.02;13.60;;;0.00;99.90;;;;;;5087524;28;20046;-83
2021/12/23 01:58:43;;;;;;;26.25;14.95;;;0.00;99.90;;;;;;5072411;28;20040;-83
2021/12/23 02:01:10;;;;;;;24.42;13.73;;;0.00;99.90;;;;;;5101344;27;20096;-83
2021/12/23 02:03:37;;;;;;;26.77;14.43;;;0.00;99.90;;;;;;5115656;27;20047;-83
2021/12/23 02:06:03;;;;;;;27.88;14.80;;;0.00;99.90;;;;;;5103154;28;20028;-83
2021/12/23 02:08:28;;;;;;;24.08;14.35;;;0.00;99.90;;;;;;5105159;27;20116;-83
2021/12/23 02:11:00;;;;;;;25.65;14.63;;;0.00;99.90;;;;;;5108985;28;20520;-83
2021/12/23 02:13:26;;;;;;;28.58;14.57;;;0.00;99.90;;;;;;5092884;28;20047;-83
2021/12/23 02:15:52;;;;;;;25.25;14.82;;;0.00;99.90;;;;;;5095398;28;20055;-82
2021/12/23 02:18:19;;;;;;;24.08;14.88;;;0.00;99.90;;;;;;5096096;28;20055;-83
2021/12/23 02:20:45;;;;;;;25.52;14.13;;;0.00;99.90;;;;;;5091688;28;20409;-83
2021/12/23 02:23:11;;;;;;;24.33;14.40;;;0.00;99.90;;;;;;5074774;28;20044;-83
2021/12/23 02:25:37;;;;;;;23.40;14.45;;;0.00;99.90;;;;;;5102063;28;20388;-83
2021/12/23 02:28:07;;;;;;;28.63;16.00;;;0.00;99.90;;;;;;5073651;28;20065;-83
2021/12/23 02:30:38;;;;;;;23.55;13.88;;;0.00;99.90;;;;;;5076646;28;20127;-83
2021/12/23 02:33:05;;;;;;;26.02;14.45;;;0.00;99.90;;;;;;5088175;28;20036;-83
2021/12/23 02:35:31;;;;;;;23.98;13.95;;;0.00;99.90;;;;;;5070407;28;20043;-83
2021/12/23 02:37:57;;;;;;;25.77;14.73;;;0.00;99.90;;;;;;5082007;28;20087;-83
2021/12/23 02:40:27;;;;;;;22.45;14.07;;;0.00;99.90;;;;;;5099553;28;20123;-83
2021/12/23 02:42:54;;;;;;;24.90;14.52;;;0.00;99.90;;;;;;5073086;28;20040;-83
2021/12/23 02:45:20;;;;;;;26.42;13.85;;;0.00;99.90;;;;;;5092368;28;20035;-83
2021/12/23 02:47:46;;;;;;;24.92;14.50;;;0.00;99.90;;;;;;5096173;28;20032;-83
2021/12/23 02:50:11;;;;;;;22.30;13.27;;;0.00;99.90;;;;;;5081286;28;20055;-83
2021/12/23 02:52:37;;;;;;;25.95;14.57;;;0.00;99.90;;;;;;5074254;28;20044;-83
2021/12/23 02:55:04;;;;;;;26.27;13.88;;;0.00;99.90;;;;;;5090993;28;20038;-83
2021/12/23 02:57:31;;;;;;;24.40;13.38;;;0.10;99.90;;;;;;5107273;27;20040;-83
2021/12/23 02:59:57;;;;;;;25.42;14.63;;;0.00;99.90;;;;;;5093996;28;20047;-83
2021/12/23 03:02:23;;;;;;;24.73;13.95;;;0.10;99.90;;;;;;5073149;28;20044;-83
2021/12/23 03:04:48;;;;;;;27.00;14.32;;;0.10;99.90;;;;;;5074117;28;20046;-83
2021/12/23 03:07:15;;;;;;;23.65;14.27;;;0.10;99.90;;;;;;5090567;28;20066;-83
2021/12/23 03:09:40;;;;;;;25.08;13.80;;;0.10;99.90;;;;;;5072804;28;20040;-83
2021/12/23 03:12:06;;;;;;;27.02;15.45;;;0.10;99.90;;;;;;5070225;28;20036;-83
2021/12/23 03:14:33;;;;;;;23.13;13.52;;;0.10;99.90;;;;;;5089894;28;20110;-83
2021/12/23 03:16:58;;;;;;;25.08;14.88;;;0.10;99.90;;;;;;5073220;28;20147;-83
2021/12/23 03:19:24;;;;;;;26.00;14.05;;;0.10;99.90;;;;;;5090634;28;20128;-83
2021/12/23 03:21:50;;;;;;;24.13;13.73;;;0.20;99.90;;;;;;5089748;28;20122;-83
2021/12/23 03:24:15;;;;;;;25.77;14.30;;;0.10;99.90;;;;;;5073265;28;20032;-83
2021/12/23 03:26:41;;;;;;;25.10;14.80;;;0.20;99.90;;;;;;5075914;28;20038;-83
2021/12/23 03:29:11;;;;;;;28.00;15.05;;;0.20;99.90;;;;;;5110235;27;20035;-83
2021/12/23 03:31:37;;;;;;;24.50;13.95;;;0.20;99.90;;;;;;5075807;28;20051;-83
2021/12/23 03:34:03;;;;;;;23.20;13.48;;;0.20;99.90;;;;;;5073968;28;20086;-83
2021/12/23 03:36:29;;;;;;;26.33;14.95;;;0.20;99.90;;;;;;5106436;28;20032;-83
2021/12/23 03:38:55;;;;;;;23.17;14.13;;;0.10;99.90;;;;;;5106652;28;20040;-83
2021/12/23 03:41:20;;;;;;;27.75;14.18;;;0.10;99.90;;;;;;5104687;27;20028;-83
2021/12/23 03:43:46;;;;;;;28.27;15.93;;;0.10;99.90;;;;;;5109749;28;20089;-83
2021/12/23 03:46:11;;;;;;;28.35;14.00;;;0.10;99.90;;;;;;5075941;28;20497;-83
2021/12/23 03:48:37;;;;;;;24.52;13.60;;;0.10;99.90;;;;;;5072164;28;20036;-83
2021/12/23 03:51:03;;;;;;;25.90;14.18;;;0.10;99.90;;;;;;5088361;28;20553;-83
2021/12/23 03:53:29;;;;;;;26.85;14.65;;;0.10;99.90;;;;;;5071876;28;20051;-83
2021/12/23 03:55:54;;;;;;;23.90;13.52;;;0.10;99.90;;;;;;5069578;28;20127;-83
2021/12/23 03:58:21;;;;;;;29.30;15.05;;;0.20;99.90;;;;;;5103726;28;20043;-83
2021/12/23 04:00:47;;;;;;;26.40;14.75;;;0.20;99.90;;;;;;5071552;28;20059;-83
2021/12/23 04:03:14;;;;;;;28.05;15.55;;;0.20;99.90;;;;;;5072119;28;21509;-83
2021/12/23 04:05:39;;;;;;;28.83;15.93;;;0.20;99.90;;;;;;5071909;28;20032;-83
2021/12/23 04:08:06;;;;;;;23.48;14.15;;;0.20;99.90;;;;;;5071364;28;20072;-83
2021/12/23 04:10:32;;;;;;;26.70;14.40;;;0.20;99.90;;;;;;5088350;28;20044;-83
2021/12/23 04:12:58;;;;;;;26.42;13.80;;;0.20;99.90;;;;;;5071310;28;20095;-83
2021/12/23 04:15:24;;;;;;;27.52;14.27;;;0.20;99.90;;;;;;5092647;28;20040;-83
2021/12/23 04:17:50;;;;;;;27.40;14.32;;;0.20;99.90;;;;;;5071108;28;20126;-83
2021/12/23 04:20:22;;;;;;;27.23;14.35;;;0.20;99.90;;;;;;5089700;28;20048;-83
2021/12/23 04:22:53;;;;;;;27.02;15.00;;;0.20;99.90;;;;;;5087939;28;20158;-83
2021/12/23 04:25:21;;;;;;;28.25;16.20;;;0.20;99.90;;;;;;5064514;28;20381;-83
2021/12/23 04:27:49;;;;;;;28.30;15.40;;;0.20;99.90;;;;;;5105444;28;20413;-83
2021/12/23 04:30:17;;;;;;;27.73;15.65;;;0.20;99.90;;;;;;5070705;28;20036;-83
2021/12/23 04:32:42;;;;;;;26.27;14.50;;;0.30;99.90;;;;;;5070933;28;20044;-83
2021/12/23 04:35:09;;;;;;;26.08;14.60;;;0.20;99.90;;;;;;5088457;28;20289;-84
2021/12/23 04:37:34;;;;;;;26.80;15.43;;;0.30;99.90;;;;;;5070749;28;20547;-83
2021/12/23 04:40:01;;;;;;;30.27;15.32;;;0.30;99.90;;;;;;5086176;28;20117;-83
2021/12/23 04:42:27;;;;;;;26.95;14.05;;;0.30;99.90;;;;;;5104325;28;20405;-83
2021/12/23 04:44:53;;;;;;;26.98;14.98;;;0.30;99.90;;;;;;5069866;28;20039;-83
2021/12/23 04:47:19;;;;;;;25.13;14.65;;;0.30;99.90;;;;;;5085866;28;20043;-83
2021/12/23 04:49:45;;;;;;;28.17;15.82;;;0.30;99.90;;;;;;5081967;28;20040;-83
2021/12/23 04:52:12;;;;;;;26.73;15.13;;;0.30;99.90;;;;;;5087306;28;20036;-83
2021/12/23 04:54:38;;;;;;;26.80;14.35;;;0.30;99.90;;;;;;5085241;28;20478;-84
2021/12/23 04:57:04;;;;;;;27.23;15.70;;;0.30;99.90;;;;;;5101546;28;20063;-83
2021/12/23 04:59:29;;;;;;;23.60;14.57;;;0.30;99.90;;;;;;5069747;28;20036;-83
2021/12/23 05:01:55;;;;;;;30.73;15.60;;;0.30;99.90;;;;;;5070016;28;20040;-83
2021/12/23 05:04:21;;;;;;;24.30;14.88;;;0.30;99.90;;;;;;5086803;28;20434;-83
2021/12/23 05:06:46;;;;;;;28.02;14.85;;;0.30;99.90;;;;;;5085150;28;20051;-83
2021/12/23 05:09:12;;;;;;;23.38;13.98;;;0.30;99.90;;;;;;5068488;28;20089;-83
2021/12/23 05:11:37;;;;;;;26.73;14.77;;;0.30;99.90;;;;;;5086302;28;20107;-84
2021/12/23 05:14:03;;;;;;;30.15;14.57;;;0.30;99.90;;;;;;5067528;28;20063;-84
2021/12/23 05:16:29;;;;;;;25.83;14.73;;;0.30;99.90;;;;;;5088234;28;20485;-83
2021/12/23 05:18:54;;;;;;;25.35;14.60;;;0.30;99.90;;;;;;5102451;28;20447;-84
2021/12/23 05:21:20;;;;;;;24.60;14.23;;;0.30;99.90;;;;;;5087010;28;20048;-83
2021/12/23 05:23:45;;;;;;;25.33;15.55;;;0.30;99.90;;;;;;5086620;28;20123;-84
2021/12/23 05:26:11;;;;;;;28.15;15.63;;;0.30;99.90;;;;;;5083883;28;20064;-84
2021/12/23 05:28:37;;;;;;;28.77;14.77;;;0.30;99.90;;;;;;5084139;28;20028;-83
2021/12/23 05:31:04;;;;;;;25.17;14.45;;;0.30;99.90;;;;;;5086985;28;20039;-84
2021/12/23 05:33:29;;;;;;;28.73;15.30;;;0.30;99.90;;;;;;5070880;28;20244;-83
2021/12/23 05:35:55;;;;;;;26.08;15.15;;;0.30;99.90;;;;;;5086926;28;20577;-83
2021/12/23 05:38:22;;;;;;;28.50;16.17;;;0.30;99.90;;;;;;5084694;28;20036;-83
2021/12/23 05:40:48;;;;;;;26.27;14.73;;;0.30;99.90;;;;;;5067842;28;20044;-83
2021/12/23 05:43:15;;;;;;;26.10;15.50;;;0.30;99.90;;;;;;5069830;28;20032;-83
2021/12/23 05:45:41;;;;;;;25.80;15.23;;;0.30;99.90;;;;;;5086934;28;20032;-84
2021/12/23 05:48:07;;;;;;;28.98;15.25;;;0.30;99.90;;;;;;5085955;28;20317;-84
2021/12/23 05:50:33;;;;;;;27.50;15.77;;;0.40;99.90;;;;;;5105009;28;20040;-83
2021/12/23 05:52:59;;;;;;;26.00;14.63;;;0.40;99.90;;;;;;5069445;28;20400;-83
2021/12/23 05:55:26;;;;;;;26.40;14.75;;;0.40;99.90;;;;;;5085372;28;20127;-83
2021/12/23 05:57:52;;;;;;;26.15;14.38;;;0.30;99.90;;;;;;5086704;28;20493;-83
2021/12/23 06:00:25;;;;;;;32.67;16.10;;;0.40;99.90;;;;;;5068499;28;20390;-83
2021/12/23 06:02:52;;;;;;;27.00;14.60;;;0.40;99.90;;;;;;5070308;28;20054;-84
2021/12/23 06:05:18;;;;;;;28.17;15.10;;;0.40;99.90;;;;;;5101245;28;20490;-83
2021/12/23 06:07:44;;;;;;;34.38;15.90;;;0.40;99.90;;;;;;5069567;28;20043;-84
2021/12/23 06:10:10;;;;;;;27.80;15.27;;;0.50;99.90;;;;;;5070161;28;20044;-83
2021/12/23 06:12:35;;;;;;;28.90;15.52;;;0.40;99.90;;;;;;5083839;28;20044;-84
2021/12/23 06:15:01;;;;;;;31.17;16.38;;;0.40;99.90;;;;;;5103897;28;20047;-84
2021/12/23 06:17:27;;;;;;;28.88;16.00;;;0.40;99.90;;;;;;5071111;28;20020;-83
2021/12/23 06:19:53;;;;;;;30.15;16.35;;;0.50;99.90;;;;;;5086441;28;20459;-84
2021/12/23 06:22:19;;;;;;;25.92;14.57;;;0.40;99.90;;;;;;5086656;28;20036;-83
2021/12/23 06:24:47;;;;;;;26.48;15.50;;;0.50;99.90;;;;;;5069471;28;20040;-84
2021/12/23 06:27:17;;;;;;;26.67;15.13;;;0.50;99.90;;;;;;5084281;28;20036;-84
2021/12/23 06:29:43;;;;;;;28.00;15.00;;;0.50;99.90;;;;;;5069156;28;20038;-84
2021/12/23 06:32:09;;;;;;;26.35;15.82;;;0.50;99.90;;;;;;5067660;28;20059;-84
2021/12/23 06:34:35;;;;;;;28.02;16.02;;;0.60;99.90;;;;;;5086253;28;20051;-84
2021/12/23 06:37:03;;;;;;;28.27;16.13;;;0.60;99.90;;;;;;5102088;28;20051;-84
2021/12/23 06:39:30;;;;;;;29.88;16.77;;;0.60;99.90;;;;;;5070776;28;20316;-83
2021/12/23 06:41:55;;;;;;;28.17;15.20;;;0.60;99.90;;;;;;5069007;28;20035;-83
2021/12/23 06:44:21;;;;;;;32.30;15.90;;;0.60;99.90;;;;;;5085785;28;20375;-84
2021/12/23 06:46:47;;;;;;;30.85;16.33;;;0.60;99.90;;;;;;5085643;28;20040;-83
2021/12/23 06:49:12;;;;;;;29.48;15.23;;;0.60;99.90;;;;;;5072343;28;20043;-84
2021/12/23 06:51:38;;;;;;;31.05;16.52;;;0.60;99.90;;;;;;5089824;28;20044;-84
2021/12/23 06:54:04;;;;;;;29.38;16.10;;;0.60;99.90;;;;;;5069163;28;20036;-83
2021/12/23 06:56:30;;;;;;;27.85;16.25;;;0.70;99.90;;;;;;5090227;28;20043;-84
2021/12/23 06:58:55;;;;;;;28.42;16.48;;;0.70;99.90;;;;;;5089537;28;20042;-84
2021/12/23 07:01:21;;;;;;;29.60;16.52;;;0.60;99.90;;;;;;5091828;28;20510;-84
2021/12/23 07:06:36;;;;;;;28.83;16.52;;;0.70;99.90;;;;;;5089742;28;20478;-84
2021/12/23 07:09:06;;;;;;;30.10;16.75;;;0.70;99.90;;;;;;5089760;28;20040;-83
2021/12/23 07:11:33;;;;;;;28.67;15.70;;;0.70;99.90;;;;;;5103914;27;20043;-85
2021/12/23 07:13:58;;;;;;;32.47;16.95;;;0.70;99.90;;;;;;5104525;27;20050;-84
2021/12/23 07:16:24;;;;;;;33.55;18.38;;;0.70;99.90;;;;;;5092288;28;20404;-83
2021/12/23 07:18:50;;;;;;;31.30;17.08;;;0.70;99.90;;;;;;5090794;28;20046;-83
2021/12/23 07:21:16;;;;;;;33.17;17.75;;;0.70;99.90;;;;;;5072439;28;20036;-83
2021/12/23 07:23:41;;;;;;;33.25;17.15;;;0.70;99.90;;;;;;5087792;28;20042;-83
2021/12/23 07:26:07;;;;;;;32.13;17.73;;;0.70;99.90;;;;;;5069729;28;20040;-83
2021/12/23 07:28:33;;;;;;;35.65;17.70;;;0.70;99.90;;;;;;5071728;28;20066;-83
2021/12/23 07:30:59;;;;;;;28.58;17.05;;;0.70;99.90;;;;;;5100218;27;20039;-83
2021/12/23 07:33:24;;;;;;;30.40;17.50;;;0.70;99.90;;;;;;5090795;28;20285;-83
2021/12/23 07:35:50;;;;;;;30.45;16.90;;;0.70;99.90;;;;;;5066930;28;20042;-83
2021/12/23 07:38:16;;;;;;;32.58;17.42;;;0.70;99.90;;;;;;5072127;28;20542;-83
2021/12/23 07:40:42;;;;;;;34.08;18.80;;;0.70;99.90;;;;;;5072284;28;20063;-83
2021/12/23 07:43:10;;;;;;;33.60;17.45;;;0.70;99.90;;;;;;5086102;28;20072;-83
2021/12/23 07:45:37;;;;;;;32.25;18.02;;;0.60;99.90;;;;;;5085864;28;20032;-83
2021/12/23 07:48:04;;;;;;;31.85;17.98;;;0.70;99.90;;;;;;5088762;28;20119;-82
2021/12/23 07:50:29;;;;;;;32.97;18.55;;;0.70;99.90;;;;;;5065718;28;20043;-83
2021/12/23 07:52:55;;;;;;;33.10;19.08;;;0.70;99.90;;;;;;5068779;28;20027;-84
2021/12/23 07:55:22;;;;;;;32.17;17.98;;;0.70;99.90;;;;;;5084709;28;20044;-83
2021/12/23 07:57:48;;;;;;;28.77;16.48;;;0.70;99.90;;;;;;5083720;28;20216;-83
2021/12/23 08:00:15;;;;;;;31.05;18.05;;;0.70;99.90;;;;;;5066487;28;20040;-82
2021/12/23 08:02:42;;;;;;;35.85;19.00;;;0.70;99.90;;;;;;5064653;28;20505;-83
2021/12/23 08:05:08;;;;;;;31.13;17.63;;;0.70;99.90;;;;;;5081943;28;20039;-82
2021/12/23 08:07:34;;;;;;;32.97;18.27;;;0.60;99.90;;;;;;5069400;28;20545;-83
2021/12/23 08:09:59;;;;;;;32.92;18.15;;;0.70;99.90;;;;;;5089946;28;20170;-82
2021/12/23 08:12:25;;;;;;;29.88;16.77;;;0.70;99.90;;;;;;5072950;28;20042;-83
2021/12/23 08:14:50;;;;;;;32.38;18.13;;;0.70;99.90;;;;;;5105799;28;20043;-82
2021/12/23 08:17:16;;;;;;;31.58;17.92;;;0.70;99.90;;;;;;5105559;28;20115;-82
2021/12/23 08:19:42;;;;;;;32.47;18.00;;;0.70;99.90;;;;;;5087718;28;20036;-83
2021/12/23 08:22:09;;;;;;;34.30;18.52;;;0.70;99.90;;;;;;5088516;28;20667;-82
2021/12/23 08:24:35;;;;;;;39.63;19.15;;;0.70;99.90;;;;;;5089186;28;20040;-83
2021/12/23 08:27:01;;;;;;;39.80;20.70;;;0.70;99.90;;;;;;5089771;28;20048;-82
2021/12/23 08:29:27;;;;;;;33.83;19.05;;;0.70;99.90;;;;;;5089000;28;20118;-83
2021/12/23 08:31:53;;;;;;;36.55;19.20;;;0.70;99.90;;;;;;5089600;28;20192;-82
2021/12/23 08:34:26;;;;;;;33.88;19.40;;;0.70;99.90;;;;;;5087158;28;20042;-82
2021/12/23 08:36:53;;;;;;;37.08;20.33;;;0.70;99.90;;;;;;5070527;28;20436;-82
2021/12/23 08:39:19;;;;;;;38.10;20.70;;;0.70;99.90;;;;;;5089304;28;20044;-83
2021/12/23 08:41:45;;;;;;;37.38;20.20;;;0.70;99.90;;;;;;5089441;28;20036;-82
2021/12/23 08:44:12;;;;;;;36.08;21.02;;;0.70;99.90;;;;;;5088467;28;20075;-82
2021/12/23 08:46:39;;;;;;;39.20;21.27;;;0.70;99.90;;;;;;5089157;28;20081;-81
2021/12/23 08:49:05;;;;;;;37.53;19.02;;;0.70;99.90;;;;;;5089120;28;20032;-82
2021/12/23 08:51:35;;;;;;;39.03;21.73;;;0.70;99.90;;;;;;5086968;28;20040;-82
2021/12/23 08:54:01;;;;;;;38.03;20.05;;;0.80;99.90;;;;;;5087597;28;20032;-82
2021/12/23 08:56:27;;;;;;;35.78;20.35;;;0.80;99.90;;;;;;5071307;28;20046;-82
2021/12/23 08:58:53;;;;;;;37.53;19.95;;;0.80;99.90;;;;;;5070885;28;20044;-82
2021/12/23 09:01:19;;;;;;;36.80;20.30;;;0.80;99.90;;;;;;5069542;28;20089;-82
2021/12/23 09:03:44;;;;;;;42.38;21.95;;;0.80;99.90;;;;;;5070994;28;20028;-82
2021/12/23 09:06:10;;;;;;;39.33;20.67;;;0.70;99.90;;;;;;5068046;28;20048;-82
2021/12/23 09:08:36;;;;;;;44.00;20.75;;;0.80;99.90;;;;;;5068216;28;20036;-82
2021/12/23 09:11:03;;;;;;;43.20;21.65;;;0.70;99.90;;;;;;5073813;28;20047;-82
2021/12/23 09:13:29;;;;;;;44.90;22.83;;;0.80;99.90;;;;;;5105008;28;20040;-82
2021/12/23 09:15:56;;;;;;;41.65;21.25;;;0.80;99.90;;;;;;5104611;28;20048;-82
2021/12/23 09:18:23;;;;;;;43.65;21.90;;;0.80;99.90;;;;;;5068547;28;20190;-82
2021/12/23 09:20:50;;;;;;;40.83;21.10;;;0.80;99.90;;;;;;5050863;28;20131;-82
2021/12/23 09:23:16;;;;;;;43.78;22.58;;;0.80;99.90;;;;;;5084753;28;20081;-82
2021/12/23 09:25:42;;;;;;;45.75;22.17;;;0.80;99.90;;;;;;5081227;28;20556;-82
2021/12/23 09:33:24;;;;;;;49.08;24.15;;;0.90;99.90;;;;;;5088209;28;20067;-82
2021/12/23 09:35:50;;;;;;;51.10;23.33;;;0.90;99.90;;;;;;5070071;28;20096;-82
2021/12/23 09:38:17;;;;;;;48.38;23.17;;;0.90;99.90;;;;;;5101494;28;20394;-82
2021/12/23 09:40:43;;;;;;;42.90;23.85;;;0.90;99.90;;;;;;5088131;28;20032;-82
2021/12/23 09:43:13;;;;;;;53.20;25.60;;;1.00;99.90;;;;;;5087735;28;20070;-82
2021/12/23 09:45:41;;;;;;;49.97;25.10;;;1.00;99.90;;;;;;5071209;28;20036;-82
2021/12/23 09:48:07;;;;;;;53.40;25.63;;;1.00;99.90;;;;;;5071268;28;20039;-82
2021/12/23 09:50:38;;;;;;;55.05;26.60;;;1.00;99.90;;;;;;5088336;28;20089;-82
2021/12/23 09:53:05;;;;;;;49.47;25.20;;;1.00;99.90;;;;;;5082498;28;20440;-83
2021/12/23 09:55:34;;;;;;;52.47;26.85;;;1.10;99.90;;;;;;5093019;28;20501;-83
2021/12/23 09:57:59;;;;;;;51.83;25.25;;;1.10;99.90;;;;;;5085235;28;20048;-83
2021/12/23 10:00:31;;;;;;;52.28;26.35;;;1.10;99.90;;;;;;5063969;28;20047;-83
2021/12/23 10:02:57;;;;;;;56.40;27.30;;;1.10;99.90;;;;;;5060404;28;20101;-83
2021/12/23 10:05:26;;;;;;;56.42;27.38;;;1.10;99.90;;;;;;5091412;28;20446;-83
2021/12/23 10:07:54;;;;;;;58.15;25.75;;;1.10;99.90;;;;;;5081586;28;20051;-83
2021/12/23 10:10:29;;;;;;;54.80;27.00;;;1.10;99.90;;;;;;5078664;28;20044;-82
2021/12/23 10:27:28;;;;;;;54.35;25.73;;;1.20;99.90;;;;;;5084775;28;20044;-83
2021/12/23 10:30:20;;;;;;;57.55;25.98;;;1.10;99.90;;;;;;5086214;28;20110;-83
2021/12/23 10:38:39;;;;;;;64.47;27.92;;;1.20;99.90;;;;;;5089199;28;20035;-89
2021/12/23 10:41:12;;;;;;;59.70;27.65;;;1.20;99.90;;;;;;5092223;28;20036;-84
2021/12/23 10:43:44;;;;;;;57.05;28.38;;;1.20;99.90;;;;;;5091218;28;20039;-86
2021/12/23 10:46:19;;;;;;;56.22;27.42;;;1.20;99.90;;;;;;5108746;27;20503;-93
2021/12/23 10:49:28;;;;;;;63.88;29.98;;;1.30;99.90;;;;;;5069225;28;20059;-89
2021/12/23 10:52:06;;;;;;;56.95;26.33;;;1.30;99.90;;;;;;5061588;28;20097;-88
2021/12/23 11:00:27;;;;;;;58.28;27.95;;;1.20;99.90;;;;;;5089138;28;20048;-83
2021/12/23 11:06:06;;;;;;;62.85;29.10;;;1.20;99.90;;;;;;5106505;27;20108;-83
2021/12/23 11:39:00;;;;;;;67.38;30.30;;;1.20;99.90;;;;;;5082332;28;20172;-83
2021/12/23 11:43:57;;;;;;;73.35;31.38;;;1.20;99.90;;;;;;5081558;28;20055;-83
2021/12/23 11:46:28;;;;;;;74.35;32.25;;;1.20;99.90;;;;;;5079107;28;20035;-83
2021/12/23 11:48:57;;;;;;;68.28;31.48;;;1.20;99.90;;;;;;5075954;28;20108;-83
2021/12/23 11:51:34;;;;;;;69.15;31.13;;;1.20;99.90;;;;;;5065426;28;20036;-82
2021/12/23 11:54:03;;;;;;;80.13;32.63;;;1.20;99.90;;;;;;5082039;28;20044;-83
2021/12/23 11:56:31;;;;;;;75.20;32.10;;;1.20;99.90;;;;;;5080331;28;20047;-88
2021/12/23 11:59:00;;;;;;;84.88;38.00;;;1.20;99.90;;;;;;5094768;28;20093;-82
2021/12/23 12:01:32;;;;;;;78.60;34.90;;;1.20;99.90;;;;;;5081331;28;20130;-83
2021/12/23 12:04:07;;;;;;;82.40;35.28;;;1.20;99.90;;;;;;5067922;28;20036;-83
2021/12/23 12:06:39;;;;;;;75.32;32.92;;;1.20;99.90;;;;;;5081600;28;20090;-82
2021/12/23 12:09:18;;;;;;;80.25;32.90;;;1.30;99.90;;;;;;5084280;28;20048;-83
2021/12/23 12:11:58;;;;;;;82.93;32.88;;;1.30;99.90;;;;;;5086079;28;20515;-83
2021/12/23 12:14:55;;;;;;;92.47;38.00;;;1.30;99.90;;;;;;5077566;28;20044;-83
2021/12/23 12:17:23;;;;;;;86.05;35.33;;;1.20;99.90;;;;;;5063295;28;20127;-82
2021/12/23 12:20:07;;;;;;;81.97;32.92;;;1.20;99.90;;;;;;5083014;28;20566;-82
2021/12/23 12:22:49;;;;;;;88.78;34.65;;;1.30;99.90;;;;;;5064213;28;20097;-82
2021/12/23 12:25:24;;;;;;;81.57;32.83;;;1.30;99.90;;;;;;5062100;28;20032;-82
2021/12/23 12:27:56;;;;;;;83.32;34.53;;;1.30;99.90;;;;;;5092850;28;20401;-83
2021/12/23 12:30:36;;;;;;;90.78;35.35;;;1.30;99.90;;;;;;5106013;28;20040;-83
2021/12/23 12:33:18;;;;;;;78.90;32.55;;;1.30;99.90;;;;;;5065429;28;20036;-81
2021/12/23 12:35:49;;;;;;;77.43;32.38;;;1.30;99.90;;;;;;5083384;28;20036;-81
2021/12/23 12:38:22;;;;;;;80.68;34.25;;;1.40;99.90;;;;;;5059171;28;20131;-82
2021/12/23 12:40:58;;;;;;;80.47;35.42;;;1.30;99.90;;;;;;5095163;28;20062;-81
2021/12/23 12:43:47;;;;;;;75.47;32.42;;;1.40;99.90;;;;;;5063834;28;20486;-82
2021/12/23 12:46:40;;;;;;;74.53;32.38;;;1.40;99.90;;;;;;5089631;28;20078;-83
2021/12/23 12:49:25;;;;;;;74.80;32.03;;;1.40;99.90;;;;;;5056997;28;20186;-82
2021/12/23 12:51:54;;;;;;;78.40;32.08;;;1.40;99.90;;;;;;5082886;28;20123;-82
2021/12/23 12:54:37;;;;;;;87.75;33.00;;;1.40;99.90;;;;;;5062837;28;20063;-83
2021/12/23 12:57:06;;;;;;;74.82;31.33;;;1.50;99.90;;;;;;5065766;28;20086;-83
2021/12/23 12:59:37;;;;;;;79.68;32.13;;;1.50;99.90;;;;;;5065968;28;20209;-83
2021/12/23 13:02:19;;;;;;;76.72;32.28;;;1.50;99.90;;;;;;5079585;28;20182;-83
2021/12/23 13:04:51;;;;;;;77.80;31.65;;;1.50;99.90;;;;;;5084567;28;20391;-82
2021/12/23 13:07:34;;;;;;;81.50;35.08;;;1.50;99.90;;;;;;5086905;28;20047;-82
2021/12/23 13:10:08;;;;;;;75.13;31.80;;;1.50;99.90;;;;;;5074834;28;20089;-82
2021/12/23 13:12:50;;;;;;;71.45;33.05;;;1.50;99.90;;;;;;5064026;28;20044;-82
2021/12/23 13:15:19;;;;;;;80.32;31.63;;;1.50;99.90;;;;;;5087161;28;20036;-82
2021/12/23 13:18:02;;;;;;;76.30;34.33;;;1.50;99.90;;;;;;5105140;27;20043;-82
2021/12/23 13:20:36;;;;;;;85.03;33.78;;;1.50;99.90;;;;;;5069890;28;20498;-82
2021/12/23 13:23:21;;;;;;;72.75;32.28;;;1.60;99.90;;;;;;5095677;28;20075;-86
2021/12/23 13:26:05;;;;;;;72.18;31.92;;;1.50;99.90;;;;;;5075479;28;20469;-82
2021/12/23 13:28:40;;;;;;;76.15;32.72;;;1.60;99.90;;;;;;5062463;28;20035;-82
2021/12/23 13:31:28;;;;;;;75.82;31.08;;;1.50;99.90;;;;;;5064711;28;20033;-83
2021/12/23 13:33:53;;;;;;;76.40;32.67;;;1.60;99.90;;;;;;5083589;28;20071;-82
2021/12/23 13:36:28;;;;;;;74.82;31.77;;;1.60;99.90;;;;;;5061463;28;20518;-82
2021/12/23 13:38:57;;;;;;;75.00;30.70;;;1.60;99.90;;;;;;5065821;28;20028;-82
2021/12/23 13:41:29;;;;;;;72.07;32.08;;;1.60;99.90;;;;;;5096220;28;20044;-83
2021/12/23 13:44:16;;;;;;;77.00;31.92;;;1.60;99.90;;;;;;5077400;28;20112;-82
2021/12/23 13:46:44;;;;;;;73.38;32.72;;;1.60;99.90;;;;;;5094092;28;20032;-82
2021/12/23 13:49:10;;;;;;;69.43;32.08;;;1.60;99.90;;;;;;5083600;28;20032;-82
2021/12/23 13:51:40;;;;;;;69.85;32.80;;;1.60;99.90;;;;;;5064316;28;20044;-81
2021/12/23 13:54:17;;;;;;;75.30;38.25;;;1.60;99.90;;;;;;5081448;28;20051;-81
2021/12/23 13:56:51;;;;;;;72.45;33.17;;;1.70;99.90;;;;;;5083740;28;20462;-81
2021/12/23 13:59:20;;;;;;;71.07;30.30;;;1.70;99.90;;;;;;5079021;28;20990;-81
2021/12/23 14:02:07;;;;;;;72.22;31.63;;;1.70;99.90;;;;;;5081977;28;20033;-81